Time;durP1;ratioP1;P1;durP2;ratioP2;P2;SDS_P1;SDS_P2;PMS_P1;PMS_P2;Temp;Humidity;BMP_temperature;BMP_pressure;BME280_temperature;BME280_humidity;BME280_pressure;Samples;Min_cycle;Max_cycle;Signal;HPM_P1;HPM_P2
2022/05/15 00:02:20;;;;;;;;;;;9.40;99.90;;;;;;5091989;28;20374;-67
2022/05/15 00:04:45;;;;;;;;;;;9.40;99.90;;;;;;5064640;28;19921;-67
2022/05/15 00:07:11;;;;;;;;;;;9.30;99.90;;;;;;5098199;28;19927;-67
2022/05/15 00:09:36;;;;;;;;;;;9.40;99.90;;;;;;5091015;28;19920;-67
2022/05/15 00:12:03;;;;;;;;;;;9.40;99.90;;;;;;5090079;28;19923;-67
2022/05/15 00:14:29;;;;;;;;;;;9.40;99.90;;;;;;5092335;28;19925;-67
2022/05/15 00:16:54;;;;;;;;;;;9.30;99.90;;;;;;5089940;28;19925;-66
2022/05/15 00:19:20;;;;;;;;;;;9.20;99.90;;;;;;5102452;28;20271;-67
2022/05/15 00:21:45;;;;;;;;;;;9.20;99.90;;;;;;5108901;27;20255;-67
2022/05/15 00:24:10;;;;;;;;;;;9.20;99.90;;;;;;5059330;28;20014;-67
2022/05/15 00:26:36;;;;;;;;;;;9.20;99.90;;;;;;5080962;28;20410;-67
2022/05/15 00:29:01;;;;;;;;;;;9.20;99.90;;;;;;5073671;28;20077;-67
2022/05/15 00:31:27;;;;;;;;;;;9.30;99.90;;;;;;5083777;28;19924;-67
2022/05/15 00:33:53;;;;;;;;;;;9.30;99.90;;;;;;5083414;28;19981;-67
2022/05/15 00:36:18;;;;;;;;;;;9.30;99.90;;;;;;5078842;28;19945;-67
2022/05/15 00:38:44;;;;;;;;;;;9.30;99.90;;;;;;5090885;28;19920;-67
2022/05/15 00:41:11;;;;;;;;;;;9.30;99.90;;;;;;5091765;28;20337;-67
2022/05/15 00:43:42;;;;;;;;;;;9.30;99.90;;;;;;5088598;28;19973;-67
2022/05/15 00:46:10;;;;;;;;;;;9.20;99.90;;;;;;5092521;28;19927;-67
2022/05/15 00:48:36;;;;;;;;;;;9.20;99.90;;;;;;5094549;28;19924;-67
2022/05/15 00:51:05;;;;;;;;;;;9.10;99.90;;;;;;5092082;28;19927;-67
2022/05/15 00:53:32;;;;;;;;;;;9.10;99.90;;;;;;5113658;27;20011;-67
2022/05/15 00:55:59;;;;;;;;;;;9.00;99.90;;;;;;5081908;28;19926;-67
2022/05/15 00:58:28;;;;;;;;;;;8.90;99.90;;;;;;5076169;28;19924;-67
2022/05/15 01:00:54;;;;;;;;;;;8.70;99.90;;;;;;5094839;28;20011;-68
2022/05/15 01:03:20;;;;;;;;;;;8.60;99.90;;;;;;5069516;28;19920;-67
2022/05/15 01:05:48;;;;;;;;;;;8.50;99.90;;;;;;5090430;28;20348;-67
2022/05/15 01:08:13;;;;;;;;;;;8.50;99.90;;;;;;5070687;28;19920;-67
2022/05/15 01:10:41;;;;;;;;;;;8.40;99.90;;;;;;5082478;28;19943;-67
2022/05/15 01:13:08;;;;;;;;;;;8.30;99.90;;;;;;5090430;28;21049;-67
2022/05/15 01:15:36;;;;;;;;;;;8.30;99.90;;;;;;5111833;27;20007;-68
2022/05/15 01:18:01;;;;;;;;;;;8.20;99.90;;;;;;5088557;28;19923;-67
2022/05/15 01:20:28;;;;;;;;;;;8.20;99.90;;;;;;5084107;28;19924;-67
2022/05/15 01:22:54;;;;;;;;;;;8.10;99.90;;;;;;5077301;28;19921;-67
2022/05/15 01:25:21;;;;;;;;;;;8.20;99.90;;;;;;5081883;28;19927;-67
2022/05/15 01:28:02;;;;;;;;;;;8.20;99.90;;;;;;5095004;28;20394;-68
2022/05/15 01:30:28;;;;;;;;;;;8.20;99.90;;;;;;5079234;28;20397;-68
2022/05/15 01:32:54;;;;;;;;;;;8.20;99.90;;;;;;5085497;28;19923;-68
2022/05/15 01:35:19;;;;;;;;;;;8.20;99.90;;;;;;5090677;28;19920;-67
2022/05/15 01:37:45;;;;;;;;;;;8.20;99.90;;;;;;5087683;28;20283;-68
2022/05/15 01:40:11;;;;;;;;;;;8.20;99.90;;;;;;5074956;28;19927;-67
2022/05/15 01:42:36;;;;;;;;;;;8.30;99.90;;;;;;5095184;28;19924;-68
2022/05/15 01:45:04;;;;;;;;;;;8.30;99.90;;;;;;5082050;28;20029;-67
2022/05/15 01:47:33;;;;;;;;;;;8.40;99.90;;;;;;5085477;28;20359;-68
2022/05/15 01:49:58;;;;;;;;;;;8.40;99.90;;;;;;5096102;28;20050;-68
2022/05/15 01:52:24;;;;;;;;;;;8.30;99.90;;;;;;5088205;28;20003;-68
2022/05/15 01:54:49;;;;;;;;;;;8.20;99.90;;;;;;5100304;27;20013;-68
2022/05/15 01:57:14;;;;;;;;;;;8.20;99.90;;;;;;5074764;28;20113;-68
2022/05/15 01:59:40;;;;;;;;;;;8.10;99.90;;;;;;5089634;28;19920;-68
2022/05/15 02:02:06;;;;;;;;;;;8.10;99.90;;;;;;5088374;28;19924;-68
2022/05/15 02:04:32;;;;;;;;;;;8.10;99.90;;;;;;5065502;28;19924;-68
2022/05/15 02:06:57;;;;;;;;;;;8.10;99.90;;;;;;5074085;28;19926;-68
2022/05/15 02:09:23;;;;;;;;;;;8.20;99.90;;;;;;5072464;28;19932;-68
2022/05/15 02:11:48;;;;;;;;;;;8.20;99.90;;;;;;5075187;28;19928;-68
2022/05/15 02:14:14;;;;;;;;;;;8.20;99.90;;;;;;5076979;28;19930;-68
2022/05/15 02:16:39;;;;;;;;;;;8.20;99.90;;;;;;5076101;28;20057;-68
2022/05/15 02:19:06;;;;;;;;;;;8.20;99.90;;;;;;5079396;28;20252;-68
2022/05/15 02:21:32;;;;;;;;;;;8.10;99.90;;;;;;5080485;28;19963;-67
2022/05/15 02:23:57;;;;;;;;;;;8.10;99.90;;;;;;5079749;28;20956;-67
2022/05/15 02:26:23;;;;;;;;;;;8.10;99.90;;;;;;5091789;28;19926;-67
2022/05/15 02:28:49;;;;;;;;;;;8.20;99.90;;;;;;5093965;28;20291;-67
2022/05/15 02:31:15;;;;;;;;;;;8.30;99.90;;;;;;5078293;28;20339;-68
2022/05/15 02:33:41;;;;;;;;;;;8.30;99.90;;;;;;5076287;28;19925;-68
2022/05/15 02:36:07;;;;;;;;;;;8.40;99.90;;;;;;5074712;28;20430;-67
2022/05/15 02:38:32;;;;;;;;;;;8.40;99.90;;;;;;5083674;28;20258;-67
2022/05/15 02:40:58;;;;;;;;;;;8.50;99.90;;;;;;5059165;28;19940;-68
2022/05/15 02:43:23;;;;;;;;;;;8.40;99.90;;;;;;5076909;28;19920;-68
2022/05/15 02:45:49;;;;;;;;;;;8.50;99.90;;;;;;5081275;28;19947;-68
2022/05/15 02:51:04;;;;;;;;;;;8.40;99.90;;;;;;5079770;28;19942;-69
2022/05/15 02:53:34;;;;;;;;;;;8.40;99.90;;;;;;5082482;28;20357;-68
2022/05/15 02:56:01;;;;;;;;;;;8.40;99.90;;;;;;5088743;28;19982;-69
2022/05/15 02:58:28;;;;;;;;;;;8.40;99.90;;;;;;5082854;28;20014;-68
2022/05/15 03:00:55;;;;;;;;;;;8.40;99.90;;;;;;5104126;27;20016;-68
2022/05/15 03:03:21;;;;;;;;;;;8.30;99.90;;;;;;5078206;28;20337;-68
2022/05/15 03:05:46;;;;;;;;;;;8.40;99.90;;;;;;5078415;28;19924;-69
2022/05/15 03:08:12;;;;;;;;;;;8.30;99.90;;;;;;5100735;27;19928;-68
2022/05/15 03:10:38;;;;;;;;;;;8.30;99.90;;;;;;5093117;27;20429;-69
2022/05/15 03:13:03;;;;;;;;;;;8.30;99.90;;;;;;5077891;28;19973;-69
2022/05/15 03:15:29;;;;;;;;;;;8.30;99.90;;;;;;5077018;28;19924;-69
2022/05/15 03:17:54;;;;;;;;;;;8.30;99.90;;;;;;5067226;28;20428;-68
2022/05/15 03:20:20;;;;;;;;;;;8.30;99.90;;;;;;5074893;28;19924;-68
2022/05/15 03:22:45;;;;;;;;;;;8.30;99.90;;;;;;5079656;28;19920;-69
2022/05/15 03:25:11;;;;;;;;;;;8.30;99.90;;;;;;5078489;28;19924;-68
2022/05/15 03:27:37;;;;;;;;;;;8.20;99.90;;;;;;5078776;28;19958;-69
2022/05/15 03:30:04;;;;;;;;;;;8.30;99.90;;;;;;5078003;28;19924;-68
2022/05/15 03:32:30;;;;;;;;;;;8.20;99.90;;;;;;5079662;28;19920;-69
2022/05/15 03:34:55;;;;;;;;;;;8.20;99.90;;;;;;5075101;28;20003;-69
2022/05/15 03:37:21;;;;;;;;;;;8.20;99.90;;;;;;5075107;28;20419;-68
2022/05/15 03:39:46;;;;;;;;;;;8.20;99.90;;;;;;5078099;28;19939;-69
2022/05/15 03:42:12;;;;;;;;;;;8.20;99.90;;;;;;5107400;27;19999;-69
2022/05/15 03:44:37;;;;;;;;;;;8.10;99.90;;;;;;5072916;28;19924;-69
2022/05/15 03:47:04;;;;;;;;;;;8.20;99.90;;;;;;5078096;28;20298;-69
2022/05/15 03:49:29;;;;;;;;;;;8.10;99.90;;;;;;5073533;28;19924;-69
2022/05/15 03:51:55;;;;;;;;;;;8.10;99.90;;;;;;5076672;28;19936;-68
2022/05/15 03:54:20;;;;;;;;;;;8.10;99.90;;;;;;5068122;28;19931;-69
2022/05/15 03:56:52;;;;;;;;;;;8.10;99.90;;;;;;5107920;28;20011;-68
2022/05/15 03:59:19;;;;;;;;;;;8.10;99.90;;;;;;5055380;28;19928;-68
2022/05/15 04:01:45;;;;;;;;;;;8.10;99.90;;;;;;5075249;28;19955;-69
2022/05/15 04:04:10;;;;;;;;;;;8.10;99.90;;;;;;5092073;28;19951;-68
2022/05/15 04:06:36;;;;;;;;;;;8.10;99.90;;;;;;5090182;28;19924;-68
2022/05/15 04:09:02;;;;;;;;;;;8.10;99.90;;;;;;5086835;28;20368;-68
2022/05/15 04:11:28;;;;;;;;;;;8.20;99.90;;;;;;5107041;28;19919;-69
2022/05/15 04:13:53;;;;;;;;;;;8.20;99.90;;;;;;5077244;28;20393;-68
2022/05/15 04:16:19;;;;;;;;;;;8.20;99.90;;;;;;5090180;28;20022;-68
2022/05/15 04:18:44;;;;;;;;;;;8.20;99.90;;;;;;5083380;28;19924;-68
2022/05/15 04:21:10;;;;;;;;;;;8.20;99.90;;;;;;5086242;28;19924;-68
2022/05/15 04:23:36;;;;;;;;;;;8.30;99.90;;;;;;5062196;28;20299;-68
2022/05/15 04:26:02;;;;;;;;;;;8.30;99.90;;;;;;5075745;28;19924;-68
2022/05/15 04:28:27;;;;;;;;;;;8.30;99.90;;;;;;5088733;28;19926;-67
2022/05/15 04:30:53;;;;;;;;;;;8.40;99.90;;;;;;5106665;28;19920;-67
2022/05/15 04:33:18;;;;;;;;;;;8.40;99.90;;;;;;5092954;28;20342;-66
2022/05/15 04:35:44;;;;;;;;;;;8.50;99.90;;;;;;5094205;28;20389;-67
2022/05/15 04:38:09;;;;;;;;;;;8.60;99.90;;;;;;5083224;28;20271;-67
2022/05/15 04:40:35;;;;;;;;;;;8.70;99.90;;;;;;5085512;28;20291;-67
2022/05/15 04:43:00;;;;;;;;;;;8.70;99.90;;;;;;5072173;28;20137;-68
2022/05/15 04:45:26;;;;;;;;;;;8.80;99.90;;;;;;5090228;28;19928;-67
2022/05/15 04:47:51;;;;;;;;;;;9.00;99.90;;;;;;5085099;28;20166;-67
2022/05/15 04:50:18;;;;;;;;;;;9.00;99.90;;;;;;5091629;28;20359;-66
2022/05/15 04:52:43;;;;;;;;;;;9.10;99.90;;;;;;5091952;28;20007;-67
2022/05/15 04:55:09;;;;;;;;;;;9.20;99.90;;;;;;5065583;28;20019;-67
2022/05/15 04:57:35;;;;;;;;;;;9.30;99.90;;;;;;5088660;28;19934;-67
2022/05/15 05:00:01;;;;;;;;;;;9.40;99.90;;;;;;5080935;28;20378;-67
2022/05/15 05:02:27;;;;;;;;;;;9.50;99.90;;;;;;5110148;27;19924;-67
2022/05/15 05:04:52;;;;;;;;;;;9.60;99.90;;;;;;5115236;27;20392;-67
2022/05/15 05:07:18;;;;;;;;;;;9.80;99.90;;;;;;5103836;28;20385;-67
2022/05/15 05:09:43;;;;;;;;;;;9.90;99.90;;;;;;5098229;28;19927;-66
2022/05/15 05:12:09;;;;;;;;;;;10.00;99.90;;;;;;5103187;28;19962;-65
2022/05/15 05:14:34;;;;;;;;;;;10.10;99.90;;;;;;5095555;28;19939;-66
2022/05/15 05:17:00;;;;;;;;;;;10.20;99.90;;;;;;5102983;28;20272;-66
2022/05/15 05:19:25;;;;;;;;;;;10.30;99.90;;;;;;5095685;28;19924;-67
2022/05/15 05:21:51;;;;;;;;;;;10.40;99.90;;;;;;5089656;28;19967;-68
2022/05/15 05:24:16;;;;;;;;;;;10.50;99.90;;;;;;5093985;28;20374;-68
2022/05/15 05:26:41;;;;;;;;;;;10.60;99.90;;;;;;5079166;28;20379;-68
2022/05/15 05:29:07;;;;;;;;;;;10.70;99.90;;;;;;5094906;27;19931;-66
2022/05/15 05:31:32;;;;;;;;;;;10.80;99.90;;;;;;5100558;27;20034;-68
2022/05/15 05:33:58;;;;;;;;;;;10.90;99.90;;;;;;5086415;28;20009;-68
2022/05/15 05:36:24;;;;;;;;;;;11.10;99.90;;;;;;5078490;28;19921;-67
2022/05/15 05:38:49;;;;;;;;;;;11.20;99.90;;;;;;5067924;28;19920;-68
2022/05/15 05:41:14;;;;;;;;;;;11.30;99.90;;;;;;5093240;28;19925;-66
2022/05/15 05:43:40;;;;;;;;;;;11.40;99.90;;;;;;5076015;28;19927;-67
2022/05/15 05:46:06;;;;;;;;;;;11.50;99.90;;;;;;5080291;28;19928;-67
2022/05/15 05:48:31;;;;;;;;;;;11.70;99.90;;;;;;5094809;28;19926;-67
2022/05/15 05:50:57;;;;;;;;;;;11.80;99.90;;;;;;5100147;28;19925;-65
2022/05/15 05:53:22;;;;;;;;;;;11.90;99.90;;;;;;5089087;28;19920;-66
2022/05/15 05:55:48;;;;;;;;;;;12.00;99.90;;;;;;5092886;28;20363;-67
2022/05/15 05:58:13;;;;;;;;;;;12.20;99.90;;;;;;5089462;28;19932;-66
2022/05/15 06:00:39;;;;;;;;;;;12.30;99.90;;;;;;5123240;27;19931;-65
2022/05/15 06:05:50;;;;;;;;;;;12.50;99.90;;;;;;5099600;28;19927;-65
2022/05/15 06:08:17;;;;;;;;;;;12.60;99.90;;;;;;5104630;28;19953;-66
2022/05/15 06:10:43;;;;;;;;;;;12.80;99.90;;;;;;5076369;28;20410;-65
2022/05/15 06:13:08;;;;;;;;;;;12.90;99.90;;;;;;5095723;28;19923;-64
2022/05/15 06:15:34;;;;;;;;;;;13.00;99.90;;;;;;5086775;28;19920;-66
2022/05/15 06:18:01;;;;;;;;;;;13.10;99.90;;;;;;5104714;28;20178;-66
2022/05/15 06:20:27;;;;;;;;;;;13.20;99.90;;;;;;5086392;28;20027;-66
2022/05/15 06:22:52;;;;;;;;;;;13.30;99.90;;;;;;5099728;28;20358;-64
2022/05/15 06:25:18;;;;;;;;;;;13.40;99.90;;;;;;5104922;28;20006;-65
2022/05/15 06:27:43;;;;;;;;;;;13.50;99.90;;;;;;5109581;27;19932;-66
2022/05/15 06:30:09;;;;;;;;;;;13.60;99.90;;;;;;5072735;28;20263;-66
2022/05/15 06:32:35;;;;;;;;;;;13.70;99.90;;;;;;5079351;28;19920;-65
2022/05/15 06:35:00;;;;;;;;;;;13.80;99.90;;;;;;5112296;27;19924;-65
2022/05/15 06:37:26;;;;;;;;;;;13.90;99.90;;;;;;5098281;28;19927;-66
2022/05/15 06:39:51;;;;;;;;;;;14.00;99.90;;;;;;5095759;28;20278;-65
2022/05/15 06:42:17;;;;;;;;;;;14.10;99.90;;;;;;5095955;28;20323;-66
2022/05/15 06:44:42;;;;;;;;;;;14.20;99.90;;;;;;5086594;28;19929;-66
2022/05/15 06:47:08;;;;;;;;;;;14.30;99.90;;;;;;5113518;27;19927;-67
2022/05/15 06:49:33;;;;;;;;;;;14.40;99.90;;;;;;5100018;28;20011;-67
2022/05/15 06:51:59;;;;;;;;;;;14.50;99.90;;;;;;5109760;28;20389;-67
2022/05/15 06:54:24;;;;;;;;;;;14.60;99.90;;;;;;5096488;28;19923;-68
2022/05/15 06:59:34;;;;;;;;;;;14.70;99.90;;;;;;5101226;28;19927;-64
2022/05/15 07:02:00;;;;;;;;;;;14.90;99.90;;;;;;5099984;28;20013;-67
2022/05/15 07:04:26;;;;;;;;;;;15.00;99.90;;;;;;5077840;28;20011;-65
2022/05/15 07:06:52;;;;;;;;;;;15.10;99.90;;;;;;5082637;28;20387;-67
2022/05/15 07:09:17;;;;;;;;;;;15.20;99.90;;;;;;5090186;28;19927;-66
2022/05/15 07:11:43;;;;;;;;;;;15.30;99.90;;;;;;5102436;28;20376;-66
2022/05/15 07:14:09;;;;;;;;;;;15.40;99.90;;;;;;5100677;28;19924;-66
2022/05/15 07:16:34;;;;;;;;;;;15.50;99.90;;;;;;5083610;28;20357;-67
2022/05/15 07:19:00;;;;;;;;;;;15.60;99.90;;;;;;5101853;28;19958;-67
2022/05/15 07:21:25;;;;;;;;;;;15.70;99.90;;;;;;5088322;28;19924;-68
2022/05/15 07:23:51;;;;;;;;;;;15.80;99.90;;;;;;5093635;28;19971;-66
2022/05/15 07:26:16;;;;;;;;;;;15.90;99.90;;;;;;5077175;28;19920;-68
2022/05/15 07:28:42;;;;;;;;;;;16.00;99.90;;;;;;5089489;28;20239;-67
2022/05/15 07:31:07;;;;;;;;;;;16.10;99.90;;;;;;5098526;28;19924;-66
2022/05/15 07:33:33;;;;;;;;;;;16.30;99.90;;;;;;5093676;28;19924;-66
2022/05/15 07:35:58;;;;;;;;;;;16.40;99.90;;;;;;5086389;28;19920;-69
2022/05/15 07:38:24;;;;;;;;;;;16.50;99.90;;;;;;5090709;28;19932;-65
2022/05/15 07:40:49;;;;;;;;;;;16.60;99.90;;;;;;5070455;28;19920;-66
2022/05/15 07:43:15;;;;;;;;;;;16.80;99.90;;;;;;5090042;28;19982;-67
2022/05/15 07:45:41;;;;;;;;;;;16.80;99.90;;;;;;5097731;28;19963;-67
2022/05/15 07:48:07;;;;;;;;;;;17.00;99.90;;;;;;5097051;28;19927;-67
2022/05/15 07:50:33;;;;;;;;;;;17.10;99.90;;;;;;5083881;28;20345;-69
2022/05/15 07:52:59;;;;;;;;;;;17.20;99.90;;;;;;5092859;28;19920;-68
2022/05/15 07:55:24;;;;;;;;;;;17.30;99.90;;;;;;5091810;28;19935;-66
2022/05/15 07:57:50;;;;;;;;;;;17.40;99.90;;;;;;5083426;28;20392;-68
2022/05/15 08:00:16;;;;;;;;;;;17.40;99.90;;;;;;5087703;28;19927;-67
2022/05/15 08:02:42;;;;;;;;;;;17.60;99.90;;;;;;5089949;28;19966;-68
2022/05/15 08:08:02;;;;;;;;;;;17.90;99.90;;;;;;5079987;28;20143;-69
2022/05/15 08:10:32;;;;;;;;;;;18.00;99.90;;;;;;5088763;28;19924;-67
2022/05/15 08:12:57;;;;;;;;;;;18.00;99.90;;;;;;5124171;27;19999;-68
2022/05/15 08:15:23;;;;;;;;;;;18.10;99.90;;;;;;5089446;28;19940;-68
2022/05/15 08:17:48;;;;;;;;;;;18.30;99.90;;;;;;5085301;28;20643;-69
2022/05/15 08:25:43;;;;;;;;;;;18.70;99.90;;;;;;5093852;28;20393;-67
2022/05/15 08:28:08;;;;;;;;;;;18.80;99.90;;;;;;5097908;28;19920;-70
2022/05/15 08:30:34;;;;;;;;;;;18.80;99.90;;;;;;5102298;28;19942;-67
2022/05/15 08:32:59;;;;;;;;;;;18.90;99.90;;;;;;5100092;28;20370;-68
2022/05/15 08:35:25;;;;;;;;;;;19.00;99.90;;;;;;5081295;28;19944;-67
2022/05/15 08:37:50;;;;;;;;;;;19.10;99.90;;;;;;5077686;28;19962;-66
2022/05/15 08:40:21;;;;;;;;;;;19.20;99.90;;;;;;5083300;28;20256;-66
2022/05/15 08:42:54;;;;;;;;;;;19.30;99.90;;;;;;5092290;28;19920;-68
2022/05/15 08:45:22;;;;;;;;;;;19.40;99.90;;;;;;5081611;28;19959;-68
2022/05/15 08:47:52;;;;;;;;;;;19.50;99.90;;;;;;5080743;28;19920;-67
2022/05/15 08:50:19;;;;;;;;;;;19.60;99.90;;;;;;5083388;28;19920;-68
2022/05/15 08:52:51;;;;;;;;;;;19.70;99.90;;;;;;5115409;27;20371;-71
2022/05/15 08:55:19;;;;;;;;;;;19.70;99.90;;;;;;5081699;28;20031;-68
2022/05/15 08:57:45;;;;;;;;;;;19.80;99.90;;;;;;5105586;27;19924;-66
2022/05/15 09:00:12;;;;;;;;;;;19.90;99.90;;;;;;5076658;28;19927;-68
2022/05/15 09:02:40;;;;;;;;;;;20.00;99.90;;;;;;5074219;28;20014;-66
2022/05/15 09:05:06;;;;;;;;;;;20.10;99.90;;;;;;5074995;28;19929;-67
2022/05/15 09:07:34;;;;;;;;;;;20.20;99.90;;;;;;5072810;28;19920;-68
2022/05/15 09:10:12;;;;;;;;;;;20.30;99.90;;;;;;5071227;28;20379;-66
2022/05/15 09:12:39;;;;;;;;;;;20.30;99.90;;;;;;5071994;28;19928;-75
2022/05/15 09:15:11;;;;;;;;;;;20.30;99.90;;;;;;5072735;28;19931;-68
2022/05/15 09:17:45;;;;;;;;;;;20.40;99.90;;;;;;5072589;28;19921;-67
2022/05/15 09:20:19;;;;;;;;;;;20.50;99.90;;;;;;5072649;28;19921;-66
2022/05/15 09:22:47;;;;;;;;;;;20.50;99.90;;;;;;5073611;28;19928;-68
2022/05/15 09:25:15;;;;;;;;;;;20.50;99.90;;;;;;5115603;27;19920;-68
2022/05/15 09:27:56;;;;;;;;;;;20.60;99.90;;;;;;5084569;28;19927;-68
2022/05/15 09:30:21;;;;;;;;;;;20.70;99.90;;;;;;5077298;28;20227;-69
2022/05/15 09:32:54;;;;;;;;;;;20.80;99.90;;;;;;5090993;28;19920;-66
2022/05/15 09:35:32;;;;;;;;;;;20.90;99.90;;;;;;5091457;28;19971;-66
2022/05/15 09:40:42;;;;;;;;;;;20.90;99.90;;;;;;5071339;28;19946;-67
2022/05/15 09:43:31;;;;;;;;;;;21.00;99.90;;;;;;5072095;28;19920;-67
2022/05/15 09:45:57;;;;;;;;;;;21.10;99.90;;;;;;5071976;28;19921;-66
2022/05/15 09:48:24;;;;;;;;;;;21.20;99.90;;;;;;5071834;28;19928;-66
2022/05/15 09:50:51;;;;;;;;;;;21.30;99.90;;;;;;5071451;28;19982;-64
2022/05/15 09:53:34;;;;;;;;;;;21.30;99.90;;;;;;5080548;28;20463;-65
2022/05/15 09:56:07;;;;;;;;;;;21.40;99.90;;;;;;5087999;28;20289;-66
2022/05/15 09:58:38;;;;;;;;;;;21.40;99.90;;;;;;5080162;28;19928;-66
2022/05/15 10:01:09;;;;;;;;;;;21.50;98.90;;;;;;5089842;28;19934;-67
2022/05/15 10:03:34;;;;;;;;;;;21.40;90.90;;;;;;5115902;27;19920;-66
2022/05/15 10:06:06;;;;;;;;;;;21.40;98.00;;;;;;5088167;28;19927;-66
2022/05/15 10:08:32;;;;;;;;;;;21.50;99.90;;;;;;5091477;28;19920;-66
2022/05/15 10:11:31;;;;;;;;;;;21.60;99.90;;;;;;5088504;28;19973;-65
2022/05/15 10:13:57;;;;;;;;;;;21.60;97.40;;;;;;5061271;28;19924;-66
2022/05/15 10:16:25;;;;;;;;;;;21.50;99.10;;;;;;5121947;27;19963;-70
2022/05/15 10:18:54;;;;;;;;;;;21.50;96.60;;;;;;5086524;28;19920;-68
2022/05/15 10:21:21;;;;;;;;;;;21.50;96.10;;;;;;5081820;28;19993;-68
2022/05/15 10:23:49;;;;;;;;;;;21.60;99.90;;;;;;5081150;28;19943;-67
2022/05/15 10:26:19;;;;;;;;;;;21.70;97.20;;;;;;5109973;27;19982;-66
2022/05/15 10:28:48;;;;;;;;;;;21.80;98.60;;;;;;5090489;28;19927;-66
2022/05/15 10:31:19;;;;;;;;;;;21.80;95.80;;;;;;5088699;28;20359;-68
2022/05/15 10:33:53;;;;;;;;;;;21.90;93.70;;;;;;5089654;28;19932;-67
2022/05/15 10:36:27;;;;;;;;;;;22.00;97.10;;;;;;5099240;28;19927;-66
2022/05/15 10:39:07;;;;;;;;;;;22.10;92.20;;;;;;5089894;28;19924;-68
2022/05/15 10:41:51;;;;;;;;;;;22.10;92.90;;;;;;5092806;28;20382;-68
2022/05/15 10:44:35;;;;;;;;;;;22.20;93.60;;;;;;5097946;28;19920;-68
2022/05/15 10:47:07;;;;;;;;;;;22.20;96.70;;;;;;5072901;28;20015;-67
2022/05/15 10:49:35;;;;;;;;;;;22.30;74.80;;;;;;5090337;28;19926;-68
2022/05/15 10:52:10;;;;;;;;;;;22.30;95.00;;;;;;5070817;28;19981;-68
2022/05/15 10:57:39;;;;;;;;;;;22.40;89.80;;;;;;5085974;28;20386;-68
2022/05/15 11:00:19;;;;;;;;;;;22.40;76.10;;;;;;5080183;28;19924;-68
2022/05/15 11:02:57;;;;;;;;;;;22.40;88.80;;;;;;5070056;28;19920;-68
2022/05/15 11:05:27;;;;;;;;;;;22.40;88.80;;;;;;5104293;28;19924;-73
2022/05/15 11:07:59;;;;;;;;;;;22.50;90.10;;;;;;5088197;28;19920;-69
2022/05/15 11:10:33;;;;;;;;;;;22.50;84.60;;;;;;5090444;28;20386;-68
2022/05/15 11:13:03;;;;;;;;;;;22.50;83.10;;;;;;5090317;28;19920;-67
2022/05/15 11:15:35;;;;;;;;;;;22.60;86.00;;;;;;5090409;28;19924;-67
2022/05/15 11:18:03;;;;;;;;;;;22.60;84.10;;;;;;5077132;28;20457;-68
2022/05/15 11:20:33;;;;;;;;;;;22.60;84.70;;;;;;5102981;28;19920;-68
2022/05/15 11:23:06;;;;;;;;;;;22.60;90.20;;;;;;5073889;28;19928;-67
2022/05/15 11:25:50;;;;;;;;;;;22.60;76.60;;;;;;5086858;28;20014;-67
2022/05/15 11:28:28;;;;;;;;;;;22.60;86.70;;;;;;5087910;28;19926;-70
2022/05/15 11:31:02;;;;;;;;;;;22.70;92.60;;;;;;5081676;28;19928;-72
2022/05/15 11:33:48;;;;;;;;;;;22.90;93.40;;;;;;5078766;28;20016;-71
2022/05/15 11:36:25;;;;;;;;;;;23.00;91.50;;;;;;5113060;27;19920;-67
2022/05/15 11:39:02;;;;;;;;;;;23.00;78.80;;;;;;5087739;28;20005;-67
2022/05/15 11:41:34;;;;;;;;;;;23.10;82.30;;;;;;5090416;28;19936;-70
2022/05/15 11:44:00;;;;;;;;;;;23.20;82.60;;;;;;5090005;28;19946;-68
2022/05/15 11:46:44;;;;;;;;;;;23.20;68.90;;;;;;5089409;28;19924;-68
2022/05/15 11:49:13;;;;;;;;;;;23.20;73.60;;;;;;5071412;28;19928;-69
2022/05/15 11:51:39;;;;;;;;;;;23.20;73.20;;;;;;5086392;28;20026;-66
2022/05/15 11:54:07;;;;;;;;;;;23.20;70.50;;;;;;5072945;28;19928;-68
2022/05/15 11:56:40;;;;;;;;;;;23.20;73.30;;;;;;5068421;28;19974;-70
2022/05/15 11:59:11;;;;;;;;;;;23.20;72.90;;;;;;5052558;28;19920;-70
2022/05/15 12:01:38;;;;;;;;;;;23.30;78.10;;;;;;5068313;28;19993;-68
2022/05/15 12:04:07;;;;;;;;;;;23.40;75.10;;;;;;5074845;28;19920;-68
2022/05/15 12:06:45;;;;;;;;;;;23.30;68.40;;;;;;5110336;28;19920;-69
2022/05/15 12:09:16;;;;;;;;;;;23.20;65.50;;;;;;5073366;28;19978;-69
2022/05/15 12:11:49;;;;;;;;;;;23.20;67.90;;;;;;5089761;28;19981;-69
2022/05/15 12:14:27;;;;;;;;;;;23.20;64.60;;;;;;5089381;28;19924;-70
2022/05/15 12:16:57;;;;;;;;;;;23.10;67.40;;;;;;5090417;28;19924;-70
2022/05/15 12:19:24;;;;;;;;;;;23.10;63.50;;;;;;5087160;28;19931;-70
2022/05/15 12:21:52;;;;;;;;;;;23.00;68.40;;;;;;5072585;28;19924;-69
2022/05/15 12:24:27;;;;;;;;;;;23.10;73.50;;;;;;5069469;28;20460;-69
2022/05/15 12:27:11;;;;;;;;;;;23.30;74.40;;;;;;5103138;28;20015;-68
2022/05/15 12:29:56;;;;;;;;;;;23.30;62.20;;;;;;5101973;28;19931;-67
2022/05/15 12:32:40;;;;;;;;;;;23.30;69.40;;;;;;5069508;28;19932;-68
2022/05/15 12:35:10;;;;;;;;;;;23.30;67.40;;;;;;5103616;28;20396;-68
2022/05/15 12:38:05;;;;;;;;;;;23.40;64.30;;;;;;5112776;28;20378;-69
2022/05/15 12:40:33;;;;;;;;;;;23.40;68.30;;;;;;5074298;28;19924;-71
2022/05/15 12:42:59;;;;;;;;;;;23.50;72.30;;;;;;5089660;28;19920;-69
2022/05/15 12:45:25;;;;;;;;;;;23.60;67.50;;;;;;5089640;28;19920;-70
2022/05/15 12:47:57;;;;;;;;;;;23.60;63.00;;;;;;5089846;28;20014;-67
2022/05/15 12:50:23;;;;;;;;;;;23.60;61.50;;;;;;5089286;28;19924;-69
2022/05/15 12:52:52;;;;;;;;;;;23.50;64.40;;;;;;5075018;28;19921;-68
2022/05/15 12:55:21;;;;;;;;;;;23.50;59.70;;;;;;5069431;28;19940;-72
2022/05/15 12:57:48;;;;;;;;;;;23.50;61.90;;;;;;5102860;28;19924;-70
2022/05/15 13:00:17;;;;;;;;;;;23.60;60.30;;;;;;5101377;28;19974;-70
2022/05/15 13:02:42;;;;;;;;;;;23.70;62.90;;;;;;5068896;28;19971;-69
2022/05/15 13:05:18;;;;;;;;;;;23.70;59.90;;;;;;5088497;28;20013;-68
2022/05/15 13:07:44;;;;;;;;;;;23.70;56.40;;;;;;5086996;28;20350;-69
2022/05/15 13:10:14;;;;;;;;;;;23.50;58.70;;;;;;5090220;28;19924;-70
2022/05/15 13:12:50;;;;;;;;;;;23.50;60.10;;;;;;5092338;28;19963;-69
2022/05/15 13:15:22;;;;;;;;;;;23.50;61.40;;;;;;5087796;28;20037;-68
2022/05/15 13:17:48;;;;;;;;;;;23.70;67.60;;;;;;5083304;28;20024;-69
2022/05/15 13:20:15;;;;;;;;;;;23.70;59.20;;;;;;5125886;27;20390;-69
2022/05/15 13:22:41;;;;;;;;;;;23.80;66.10;;;;;;5090118;28;19973;-68
2022/05/15 13:25:15;;;;;;;;;;;24.00;68.30;;;;;;5084655;28;19936;-68
2022/05/15 13:27:43;;;;;;;;;;;24.10;57.70;;;;;;5087382;28;19924;-69
2022/05/15 13:30:15;;;;;;;;;;;24.20;62.10;;;;;;5083622;28;19932;-70
2022/05/15 13:32:41;;;;;;;;;;;24.20;57.70;;;;;;5082524;28;19924;-70
2022/05/15 13:35:08;;;;;;;;;;;24.30;59.50;;;;;;5090781;28;19924;-67
2022/05/15 13:37:35;;;;;;;;;;;24.30;52.70;;;;;;5087951;28;19921;-71
2022/05/15 13:43:18;;;;;;;;;;;24.30;58.20;;;;;;5086302;28;20026;-71
2022/05/15 13:45:48;;;;;;;;;;;24.30;56.50;;;;;;5083530;28;19924;-67
2022/05/15 13:48:13;;;;;;;;;;;24.30;55.00;;;;;;5087649;28;19989;-70
2022/05/15 13:50:42;;;;;;;;;;;24.40;56.40;;;;;;5076718;28;19971;-68
2022/05/15 13:53:16;;;;;;;;;;;24.30;55.20;;;;;;5077803;28;20408;-67
2022/05/15 13:55:42;;;;;;;;;;;24.20;54.40;;;;;;5080188;28;19955;-66
2022/05/15 13:58:08;;;;;;;;;;;24.20;55.00;;;;;;5081695;28;19924;-67
2022/05/15 14:00:34;;;;;;;;;;;24.20;54.80;;;;;;5084869;28;19927;-68
2022/05/15 14:03:01;;;;;;;;;;;24.20;54.00;;;;;;5081695;28;20022;-68
2022/05/15 14:05:28;;;;;;;;;;;24.20;52.00;;;;;;5082584;28;20309;-67
2022/05/15 14:08:06;;;;;;;;;;;24.10;51.30;;;;;;5087240;28;19924;-67
2022/05/15 14:10:33;;;;;;;;;;;24.00;52.50;;;;;;5085175;28;19928;-67
2022/05/15 14:13:01;;;;;;;;;;;23.90;52.70;;;;;;5085500;28;20271;-67
2022/05/15 14:15:26;;;;;;;;;;;23.90;51.50;;;;;;5084948;28;19932;-70
2022/05/15 14:17:54;;;;;;;;;;;23.80;53.50;;;;;;5083669;28;20435;-70
2022/05/15 14:20:24;;;;;;;;;;;24.00;55.00;;;;;;5081724;28;20389;-70
2022/05/15 14:22:49;;;;;;;;;;;24.10;54.20;;;;;;5114430;27;20394;-69
2022/05/15 14:25:15;;;;;;;;;;;24.20;53.50;;;;;;5078106;28;19966;-74
2022/05/15 14:27:40;;;;;;;;;;;24.40;54.50;;;;;;5111611;27;20279;-70
2022/05/15 14:30:06;;;;;;;;;;;24.50;48.90;;;;;;5079907;28;19921;-67
2022/05/15 14:32:33;;;;;;;;;;;24.60;52.40;;;;;;5079029;28;19920;-70
2022/05/15 14:34:59;;;;;;;;;;;24.70;53.50;;;;;;5079077;28;20011;-70
2022/05/15 14:37:26;;;;;;;;;;;24.80;52.40;;;;;;5075328;28;20070;-70
2022/05/15 14:39:51;;;;;;;;;;;24.80;52.90;;;;;;5078977;28;19921;-71
2022/05/15 14:42:17;;;;;;;;;;;24.80;52.50;;;;;;5087262;28;20003;-69
2022/05/15 14:44:42;;;;;;;;;;;24.80;53.70;;;;;;5068139;28;20415;-70
2022/05/15 14:47:14;;;;;;;;;;;24.80;51.80;;;;;;5111099;27;20411;-71
2022/05/15 14:49:40;;;;;;;;;;;24.90;49.70;;;;;;5080671;28;19920;-71
2022/05/15 14:52:07;;;;;;;;;;;24.80;51.00;;;;;;5063307;28;19931;-70